Time;durP1;ratioP1;P1;durP2;ratioP2;P2;SDS_P1;SDS_P2;PMS_P1;PMS_P2;Temp;Humidity;BMP_temperature;BMP_pressure;BME280_temperature;BME280_humidity;BME280_pressure;Samples;Min_cycle;Max_cycle;Signal;HPM_P1;HPM_P2
2022/06/18 00:00:56;;;;;;;;;;;;;;;18.09;60.19;100395.06;4365088;32;20003;-90
2022/06/18 00:03:24;;;;;;;;;;;;;;;18.18;60.19;100399.84;4364401;32;20013;-90
2022/06/18 00:05:58;;;;;;;;;;;;;;;17.94;60.19;100396.72;4364642;32;19986;-91
2022/06/18 00:08:26;;;;;;;;;;;;;;;17.87;60.18;100399.75;4352665;32;20002;-91
2022/06/18 00:10:55;;;;;;;;;;;;;;;17.88;60.18;100402.31;4364485;32;20010;-90
2022/06/18 00:13:41;;;;;;;;;;;;;;;18.04;60.19;100405.00;4377548;32;20037;-92
2022/06/18 00:16:14;;;;;;;;;;;;;;;17.93;60.19;100402.91;4366701;32;19975;-92
2022/06/18 00:18:39;;;;;;;;;;;;;;;17.82;60.17;100407.91;4378446;32;20354;-90
2022/06/18 00:21:05;;;;;;;;;;;;;;;17.87;60.19;100400.63;4352187;32;19983;-92
2022/06/18 00:23:34;;;;;;;;;;;;;;;17.97;60.18;100404.47;4364578;32;20001;-91
2022/06/18 00:25:59;;;;;;;;;;;;;;;17.82;60.17;100405.28;4364521;32;20098;-92
2022/06/18 00:28:25;;;;;;;;;;;;;;;17.72;60.17;100398.75;4364375;32;20480;-91
2022/06/18 00:30:50;;;;;;;;;;;;;;;17.47;60.16;100407.84;4378208;32;20664;-90
2022/06/18 00:33:18;;;;;;;;;;;;;;;17.73;60.17;100405.72;4364973;32;19989;-92
2022/06/18 00:35:44;;;;;;;;;;;;;;;17.64;60.17;100408.81;4364689;32;20017;-88
2022/06/18 00:38:26;;;;;;;;;;;;;;;17.60;60.16;100402.84;4351729;32;20312;-90
2022/06/18 00:40:51;;;;;;;;;;;;;;;17.53;60.16;100398.84;4364438;32;19994;-90
2022/06/18 00:43:18;;;;;;;;;;;;;;;17.40;60.15;100401.22;4364366;32;20017;-89
2022/06/18 00:45:44;;;;;;;;;;;;;;;17.60;60.16;100408.12;4364415;32;19987;-91
2022/06/18 00:48:21;;;;;;;;;;;;;;;17.31;60.14;100404.31;4364656;32;20295;-90
2022/06/18 00:50:48;;;;;;;;;;;;;;;17.31;60.15;100411.34;4364649;32;20065;-92
2022/06/18 00:53:14;;;;;;;;;;;;;;;17.06;60.13;100411.69;4364200;32;19983;-91
2022/06/18 00:55:41;;;;;;;;;;;;;;;17.15;60.13;100408.59;4364806;32;19989;-90
2022/06/18 00:58:14;;;;;;;;;;;;;;;17.07;60.14;100405.50;4362361;32;19995;-91
2022/06/18 01:00:42;;;;;;;;;;;;;;;16.84;60.12;100407.47;4351189;32;20018;-89
2022/06/18 01:03:21;;;;;;;;;;;;;;;16.96;60.13;100402.53;4352195;32;19970;-91
2022/06/18 01:05:46;;;;;;;;;;;;;;;17.09;60.14;100407.13;4364336;32;19979;-92
2022/06/18 01:08:16;;;;;;;;;;;;;;;16.85;60.13;100411.78;4351210;32;20734;-91
2022/06/18 01:10:43;;;;;;;;;;;;;;;17.01;60.13;100405.78;4338170;32;20103;-91
2022/06/18 01:13:10;;;;;;;;;;;;;;;16.90;60.12;100408.09;4349703;32;19971;-91
2022/06/18 01:15:36;;;;;;;;;;;;;;;17.01;60.14;100414.53;4349796;32;19990;-91
2022/06/18 01:18:01;;;;;;;;;;;;;;;16.95;60.13;100408.72;4349163;32;20006;-91
2022/06/18 01:20:27;;;;;;;;;;;;;;;17.01;60.14;100408.41;4349382;32;19987;-88
2022/06/18 01:23:01;;;;;;;;;;;;;;;16.86;60.12;100404.75;4349276;32;20009;-91
2022/06/18 01:25:26;;;;;;;;;;;;;;;16.98;60.13;100401.50;4349125;32;20412;-90
2022/06/18 01:27:54;;;;;;;;;;;;;;;16.93;60.12;100405.31;4336626;32;20007;-89
2022/06/18 01:30:21;;;;;;;;;;;;;;;16.81;60.11;100410.22;4361500;32;20028;-90
2022/06/18 01:32:46;;;;;;;;;;;;;;;16.78;60.12;100402.47;4349135;32;20380;-90
2022/06/18 01:35:11;;;;;;;;;;;;;;;16.90;60.12;100401.03;4348882;32;19967;-88
2022/06/18 01:37:37;;;;;;;;;;;;;;;16.78;60.12;100396.34;4348572;32;20015;-90
2022/06/18 01:40:02;;;;;;;;;;;;;;;16.81;60.12;100396.22;4348767;32;20002;-90
2022/06/18 01:42:31;;;;;;;;;;;;;;;17.03;60.14;100394.25;4348620;32;20027;-90
2022/06/18 01:44:57;;;;;;;;;;;;;;;17.13;60.13;100384.16;4348943;32;19979;-90
2022/06/18 01:47:25;;;;;;;;;;;;;;;17.22;60.15;100378.44;4348789;32;20054;-90
2022/06/18 01:49:59;;;;;;;;;;;;;;;17.05;60.13;100388.94;4361194;32;19995;-91
2022/06/18 01:52:26;;;;;;;;;;;;;;;16.99;60.12;100389.22;4349163;32;20246;-88
2022/06/18 01:54:53;;;;;;;;;;;;;;;17.19;60.14;100386.47;4349126;32;19993;-91
2022/06/18 01:57:19;;;;;;;;;;;;;;;16.99;60.12;100387.44;4348623;32;19992;-92
2022/06/18 01:59:46;;;;;;;;;;;;;;;17.05;60.13;100391.56;4373714;32;19991;-92
2022/06/18 02:02:11;;;;;;;;;;;;;;;17.08;60.13;100394.91;4363832;32;20023;-90
2022/06/18 02:04:38;;;;;;;;;;;;;;;17.00;60.12;100393.56;4363316;32;19978;-90
2022/06/18 02:07:04;;;;;;;;;;;;;;;17.02;60.13;100389.06;4363486;32;20041;-91
2022/06/18 02:09:33;;;;;;;;;;;;;;;17.26;60.14;100382.59;4363531;32;19990;-90
2022/06/18 02:11:58;;;;;;;;;;;;;;;17.21;60.14;100381.12;4377199;32;19979;-90
2022/06/18 02:14:23;;;;;;;;;;;;;;;16.98;60.13;100382.25;4351153;32;20013;-91
2022/06/18 02:16:49;;;;;;;;;;;;;;;16.97;60.12;100381.41;4363576;32;20016;-91
2022/06/18 02:19:15;;;;;;;;;;;;;;;17.14;60.13;100380.59;4363277;32;20011;-88
2022/06/18 02:21:41;;;;;;;;;;;;;;;16.81;60.12;100383.94;4352227;32;19978;-91
2022/06/18 02:24:06;;;;;;;;;;;;;;;17.00;60.12;100375.16;4360477;32;20379;-89
2022/06/18 02:26:31;;;;;;;;;;;;;;;16.91;60.12;100373.81;4363435;32;20013;-91
2022/06/18 02:28:57;;;;;;;;;;;;;;;17.03;60.13;100378.47;4376090;32;20006;-91
2022/06/18 02:31:24;;;;;;;;;;;;;;;16.87;60.12;100380.16;4372367;32;19982;-90
2022/06/18 02:33:51;;;;;;;;;;;;;;;16.76;60.10;100380.66;4377207;32;20103;-91
2022/06/18 02:36:18;;;;;;;;;;;;;;;16.52;60.10;100374.72;4368642;32;20002;-90
2022/06/18 02:38:43;;;;;;;;;;;;;;;16.51;60.10;100373.03;4367464;32;20407;-92
2022/06/18 02:41:09;;;;;;;;;;;;;;;16.60;60.10;100379.66;4380804;32;19994;-89
2022/06/18 02:43:34;;;;;;;;;;;;;;;17.08;60.13;100378.28;4381703;32;19971;-90
2022/06/18 02:46:00;;;;;;;;;;;;;;;16.71;60.11;100374.75;4385787;32;20021;-90
2022/06/18 02:48:26;;;;;;;;;;;;;;;16.59;60.10;100385.84;4378804;32;20002;-89
2022/06/18 02:50:52;;;;;;;;;;;;;;;16.82;60.11;100379.53;4380328;32;19993;-90
2022/06/18 02:53:17;;;;;;;;;;;;;;;16.58;60.10;100384.12;4369155;32;19978;-89
2022/06/18 02:55:43;;;;;;;;;;;;;;;16.63;60.11;100379.50;4354755;32;811288;-91
2022/06/18 02:58:17;;;;;;;;;;;;;;;16.45;60.09;100386.47;4364488;32;20632;-92
2022/06/18 03:00:42;;;;;;;;;;;;;;;16.70;60.11;100386.22;4378475;32;20033;-91
2022/06/18 03:03:13;;;;;;;;;;;;;;;16.81;60.12;100389.19;4364492;32;20317;-92
2022/06/18 03:05:38;;;;;;;;;;;;;;;16.85;60.12;100382.00;4363546;32;20006;-91
2022/06/18 03:08:04;;;;;;;;;;;;;;;16.88;60.12;100390.59;4387537;32;20014;-90
2022/06/18 03:13:13;;;;;;;;;;;;;;;16.94;60.12;100380.72;4377605;32;20017;-89
2022/06/18 03:15:38;;;;;;;;;;;;;;;16.95;60.12;100377.16;4377286;32;19990;-89
2022/06/18 03:18:03;;;;;;;;;;;;;;;17.01;60.13;100377.69;4378387;32;19986;-89
2022/06/18 03:20:44;;;;;;;;;;;;;;;16.88;60.12;100377.44;4375294;32;19975;-88
2022/06/18 03:23:13;;;;;;;;;;;;;;;16.94;60.12;100385.97;4375410;32;20030;-89
2022/06/18 03:25:39;;;;;;;;;;;;;;;16.97;60.12;100386.66;4388231;32;20001;-89
2022/06/18 03:28:04;;;;;;;;;;;;;;;17.00;60.12;100388.28;4384213;32;19986;-89
2022/06/18 03:30:29;;;;;;;;;;;;;;;16.80;60.11;100386.66;4377913;32;20010;-89
2022/06/18 03:32:54;;;;;;;;;;;;;;;16.83;60.11;100392.59;4378204;32;20018;-88
2022/06/18 03:35:20;;;;;;;;;;;;;;;16.96;60.12;100387.59;4379051;32;20549;-89
2022/06/18 03:37:45;;;;;;;;;;;;;;;16.91;60.12;100388.75;4377469;32;26163;-88
2022/06/18 03:40:11;;;;;;;;;;;;;;;16.99;60.12;100389.22;4378221;32;20025;-89
2022/06/18 03:42:37;;;;;;;;;;;;;;;17.02;60.12;100391.69;4379456;32;19975;-89
2022/06/18 03:45:02;;;;;;;;;;;;;;;17.30;60.15;100389.44;4379293;32;20022;-88
2022/06/18 03:47:27;;;;;;;;;;;;;;;17.25;60.13;100395.84;4377228;32;20062;-91
2022/06/18 03:49:54;;;;;;;;;;;;;;;17.30;60.15;100386.81;4378473;32;20316;-91
2022/06/18 03:52:19;;;;;;;;;;;;;;;17.44;60.14;100384.34;4378385;32;19979;-91
2022/06/18 03:54:44;;;;;;;;;;;;;;;17.41;60.14;100394.16;4378439;32;20002;-92
2022/06/18 03:57:13;;;;;;;;;;;;;;;17.55;60.15;100378.53;4378610;32;20066;-91
2022/06/18 03:59:39;;;;;;;;;;;;;;;17.75;60.16;100382.81;4366090;32;19995;-91
2022/06/18 04:02:04;;;;;;;;;;;;;;;17.53;60.15;100382.19;4378904;32;20336;-92
2022/06/18 04:04:29;;;;;;;;;;;;;;;17.72;60.16;100383.81;4366447;32;20006;-92
2022/06/18 04:06:55;;;;;;;;;;;;;;;18.17;60.19;100384.12;4366257;32;20009;-92
2022/06/18 04:09:20;;;;;;;;;;;;;;;18.19;60.19;100384.88;4366157;32;20011;-91
2022/06/18 04:11:45;;;;;;;;;;;;;;;18.37;60.19;100389.19;4378422;32;20001;-92
2022/06/18 04:14:10;;;;;;;;;;;;;;;18.51;60.20;100385.81;4365835;32;20011;-91
2022/06/18 04:16:35;;;;;;;;;;;;;;;18.65;60.21;100384.12;4365435;32;21443;-90
2022/06/18 04:19:01;;;;;;;;;;;;;;;18.81;60.22;100381.50;4365926;32;19987;-90
2022/06/18 04:21:26;;;;;;;;;;;;;;;18.79;60.22;100390.44;4378421;32;20388;-90
2022/06/18 04:23:51;;;;;;;;;;;;;;;19.04;60.23;100387.28;4380590;32;19976;-91
2022/06/18 04:26:17;;;;;;;;;;;;;;;19.06;60.23;100377.47;4380254;32;19982;-92
2022/06/18 04:28:42;;;;;;;;;;;;;;;19.12;60.23;100380.59;4370263;32;20005;-92
2022/06/18 04:31:07;;;;;;;;;;;;;;;19.15;60.23;100385.72;4379609;32;19966;-92
2022/06/18 04:33:33;;;;;;;;;;;;;;;19.08;60.24;100387.00;4367541;32;20014;-91
2022/06/18 04:35:58;;;;;;;;;;;;;;;19.31;60.25;100388.31;4378964;32;19986;-91
2022/06/18 04:38:24;;;;;;;;;;;;;;;19.59;60.26;100382.31;4390641;32;19991;-90
2022/06/18 04:40:49;;;;;;;;;;;;;;;19.61;60.25;100388.34;4378192;32;19993;-89
2022/06/18 04:43:15;;;;;;;;;;;;;;;19.65;60.26;100384.59;4378193;32;19991;-90
2022/06/18 04:45:40;;;;;;;;;;;;;;;19.93;60.28;100394.38;4378085;32;20026;-90
2022/06/18 04:48:05;;;;;;;;;;;;;;;20.10;60.29;100395.97;4365382;32;20327;-90
2022/06/18 04:50:31;;;;;;;;;;;;;;;20.17;60.29;100392.87;4377983;32;20260;-91
2022/06/18 04:52:56;;;;;;;;;;;;;;;20.40;60.31;100399.41;4365566;32;19995;-90
2022/06/18 04:55:23;;;;;;;;;;;;;;;20.71;60.32;100402.75;4377656;32;22675;-89
2022/06/18 04:57:49;;;;;;;;;;;;;;;20.94;60.33;100402.16;4367184;32;19986;-90
2022/06/18 05:00:14;;;;;;;;;;;;;;;21.10;60.34;100402.84;4380347;32;20312;-89
2022/06/18 05:02:41;;;;;;;;;;;;;;;21.27;60.35;100400.91;4368094;32;19994;-90
2022/06/18 05:05:08;;;;;;;;;;;;;;;21.28;60.34;100394.66;4380715;32;20048;-91
2022/06/18 05:07:33;;;;;;;;;;;;;;;21.60;60.36;100398.69;4394264;32;20320;-91
2022/06/18 05:09:58;;;;;;;;;;;;;;;21.45;60.35;100394.41;4368166;32;19979;-91
2022/06/18 05:12:23;;;;;;;;;;;;;;;21.54;60.36;100398.25;4367498;32;22934;-91
2022/06/18 05:14:49;;;;;;;;;;;;;;;21.80;60.38;100399.16;4368153;32;20013;-90
2022/06/18 05:17:26;;;;;;;;;;;;;;;21.90;60.38;100400.19;4367835;32;22261;-92
2022/06/18 05:19:51;;;;;;;;;;;;;;;21.74;60.37;100400.38;4368290;32;19991;-93
2022/06/18 05:22:16;;;;;;;;;;;;;;;21.93;60.38;100402.63;4368130;32;20016;-92
2022/06/18 05:24:41;;;;;;;;;;;;;;;22.29;60.40;100393.97;4368316;32;19994;-92
2022/06/18 05:27:08;;;;;;;;;;;;;;;22.41;60.42;100395.75;4368303;32;20017;-93
2022/06/18 05:29:34;;;;;;;;;;;;;;;22.53;60.41;100404.66;4380859;32;19967;-93
2022/06/18 05:31:59;;;;;;;;;;;;;;;22.74;60.43;100396.97;4368472;32;20009;-92
2022/06/18 05:34:24;;;;;;;;;;;;;;;22.74;60.42;100408.41;4368325;32;20012;-93
2022/06/18 05:36:50;;;;;;;;;;;;;;;22.79;60.42;100400.13;4381007;32;19978;-93
2022/06/18 05:39:16;;;;;;;;;;;;;;;22.94;60.43;100409.63;4368333;32;19974;-92
2022/06/18 05:41:41;;;;;;;;;;;;;;;23.03;60.43;100400.19;4368386;32;20002;-92
2022/06/18 05:44:06;;;;;;;;;;;;;;;23.07;60.44;100407.78;4367997;32;20012;-92
2022/06/18 05:46:32;;;;;;;;;;;;;;;23.19;60.45;100411.38;4368119;32;20387;-91
2022/06/18 05:48:57;;;;;;;;;;;;;;;23.32;60.45;100413.94;4380517;32;19963;-91
2022/06/18 05:51:22;;;;;;;;;;;;;;;23.55;60.46;100416.56;4392908;32;20011;-92
2022/06/18 05:53:48;;;;;;;;;;;;;;;23.57;60.48;100417.34;4380407;32;19982;-92
2022/06/18 05:56:13;;;;;;;;;;;;;;;23.63;60.47;100417.84;4394354;32;19980;-91
2022/06/18 05:58:39;;;;;;;;;;;;;;;23.79;60.47;100419.22;4380454;32;19987;-91
2022/06/18 06:01:04;;;;;;;;;;;;;;;23.97;60.49;100416.97;4367955;32;20010;-92
2022/06/18 06:03:29;;;;;;;;;;;;;;;23.97;60.48;100418.78;4368006;32;19994;-91
2022/06/18 06:05:54;;;;;;;;;;;;;;;24.05;60.49;100414.56;4380983;32;20001;-92
2022/06/18 06:08:19;;;;;;;;;;;;;;;24.28;60.50;100425.22;4381047;32;19994;-92
2022/06/18 06:13:29;;;;;;;;;;;;;;;24.65;60.52;100418.72;4394588;32;20036;-91
2022/06/18 06:15:54;;;;;;;;;;;;;;;24.75;60.53;100413.50;4380230;32;19991;-91
2022/06/18 06:18:20;;;;;;;;;;;;;;;24.81;60.53;100415.66;4392409;32;19974;-90
2022/06/18 06:20:46;;;;;;;;;;;;;;;25.08;60.55;100407.28;4379919;32;20007;-90
2022/06/18 06:23:11;;;;;;;;;;;;;;;24.96;60.54;100406.44;4367206;32;20006;-90
2022/06/18 06:25:37;;;;;;;;;;;;;;;24.99;60.54;100410.69;4379740;32;19983;-91
2022/06/18 06:28:02;;;;;;;;;;;;;;;25.22;60.55;100406.13;4366997;32;20005;-91
2022/06/18 06:30:28;;;;;;;;;;;;;;;25.60;60.57;100408.28;4367197;32;20309;-92
2022/06/18 06:32:53;;;;;;;;;;;;;;;25.57;60.57;100409.41;4379721;32;20304;-91
2022/06/18 06:35:18;;;;;;;;;;;;;;;25.68;60.57;100408.50;4367052;32;20036;-91
2022/06/18 06:37:43;;;;;;;;;;;;;;;25.84;60.58;100414.25;4379197;32;20649;-89
2022/06/18 06:40:09;;;;;;;;;;;;;;;26.04;60.59;100414.38;4379449;32;20006;-89
2022/06/18 06:42:39;;;;;;;;;;;;;;;26.40;60.61;100405.84;4379529;32;19994;-88
2022/06/18 06:45:04;;;;;;;;;;;;;;;26.64;60.63;100412.69;4393156;32;19979;-90
2022/06/18 06:47:29;;;;;;;;;;;;;;;26.71;60.63;100405.81;4392834;32;20008;-90
2022/06/18 06:49:55;;;;;;;;;;;;;;;26.70;60.63;100410.28;4366891;32;20010;-89
2022/06/18 06:52:20;;;;;;;;;;;;;;;26.97;60.64;100404.31;4393014;32;20303;-89
2022/06/18 06:54:45;;;;;;;;;;;;;;;27.02;60.64;100404.78;4379315;32;20018;-90
2022/06/18 06:57:22;;;;;;;;;;;;;;;27.13;60.65;100414.50;4391471;32;20029;-88
2022/06/18 06:59:48;;;;;;;;;;;;;;;27.06;60.65;100413.37;4380531;32;20406;-91
2022/06/18 07:02:17;;;;;;;;;;;;;;;26.98;60.64;100407.84;4393052;32;19979;-90
2022/06/18 07:04:42;;;;;;;;;;;;;;;26.92;60.64;100411.91;4392945;32;20315;-88
2022/06/18 07:07:08;;;;;;;;;;;;;;;26.88;60.65;100414.00;4391113;32;19966;-88
2022/06/18 07:09:33;;;;;;;;;;;;;;;27.07;60.65;100410.56;4378872;32;19994;-89
2022/06/18 07:11:58;;;;;;;;;;;;;;;27.02;60.66;100402.13;4392449;32;20017;-88
2022/06/18 07:14:23;;;;;;;;;;;;;;;26.84;60.63;100404.59;4378871;32;20025;-88
2022/06/18 07:16:49;;;;;;;;;;;;;;;26.78;60.63;100398.94;4390899;32;22200;-88
2022/06/18 07:19:14;;;;;;;;;;;;;;;26.68;60.63;100403.41;4378762;32;19994;-88
2022/06/18 07:21:40;;;;;;;;;;;;;;;26.76;60.64;100400.91;4379193;32;20101;-88
2022/06/18 07:24:05;;;;;;;;;;;;;;;26.21;60.61;100405.72;4381019;32;19987;-89
2022/06/18 07:26:30;;;;;;;;;;;;;;;25.90;60.59;100411.03;4368313;32;20029;-88
2022/06/18 07:28:55;;;;;;;;;;;;;;;25.82;60.59;100413.53;4381137;32;19991;-88
2022/06/18 07:31:27;;;;;;;;;;;;;;;25.69;60.58;100410.19;4394955;32;19986;-88
2022/06/18 07:33:53;;;;;;;;;;;;;;;25.97;60.60;100419.34;4381173;32;19987;-89
2022/06/18 07:36:19;;;;;;;;;;;;;;;25.86;60.60;100412.28;4381014;32;19975;-89
2022/06/18 07:38:44;;;;;;;;;;;;;;;25.58;60.58;100410.25;4381031;32;19994;-89
2022/06/18 07:41:11;;;;;;;;;;;;;;;25.34;60.57;100415.81;4368467;32;19978;-89
2022/06/18 07:43:38;;;;;;;;;;;;;;;25.61;60.59;100416.16;4368714;32;20033;-89
2022/06/18 07:46:03;;;;;;;;;;;;;;;25.63;60.58;100416.03;4381009;32;20057;-89
2022/06/18 07:48:28;;;;;;;;;;;;;;;25.62;60.59;100414.34;4368562;32;20288;-89
2022/06/18 07:50:53;;;;;;;;;;;;;;;25.90;60.59;100411.03;4395388;32;20279;-89
2022/06/18 07:53:20;;;;;;;;;;;;;;;25.94;60.60;100408.94;4393860;32;19986;-90
2022/06/18 07:55:45;;;;;;;;;;;;;;;26.29;60.61;100414.78;4378444;32;19995;-88
2022/06/18 07:58:10;;;;;;;;;;;;;;;26.28;60.61;100410.41;4385047;32;20417;-88
2022/06/18 08:00:39;;;;;;;;;;;;;;;26.24;60.62;100410.78;4381871;32;20001;-90
2022/06/18 08:03:04;;;;;;;;;;;;;;;26.40;60.62;100408.50;4368651;32;19993;-87
2022/06/18 08:05:30;;;;;;;;;;;;;;;26.75;60.64;100401.91;4394574;32;19966;-90
2022/06/18 08:07:55;;;;;;;;;;;;;;;26.65;60.64;100403.69;4368090;32;20028;-90
2022/06/18 08:10:20;;;;;;;;;;;;;;;26.30;60.62;100396.94;4380900;32;20336;-90
2022/06/18 08:12:46;;;;;;;;;;;;;;;26.46;60.62;100404.47;4394433;32;19982;-89
2022/06/18 08:15:11;;;;;;;;;;;;;;;26.64;60.64;100393.97;4380244;32;21086;-88
2022/06/18 08:17:36;;;;;;;;;;;;;;;26.87;60.65;100390.09;4393019;32;20021;-90
2022/06/18 08:20:04;;;;;;;;;;;;;;;27.13;60.66;100385.94;4379177;32;20349;-89
2022/06/18 08:22:29;;;;;;;;;;;;;;;27.26;60.66;100392.84;4380524;32;20046;-90
2022/06/18 08:24:54;;;;;;;;;;;;;;;27.47;60.68;100383.72;4380642;32;19974;-89
2022/06/18 08:27:19;;;;;;;;;;;;;;;27.46;60.67;100384.69;4380160;32;20010;-88
2022/06/18 08:29:45;;;;;;;;;;;;;;;27.37;60.67;100384.69;4381028;32;19997;-89
2022/06/18 08:32:10;;;;;;;;;;;;;;;27.42;60.68;100388.59;4380417;32;20009;-89
2022/06/18 08:34:35;;;;;;;;;;;;;;;27.76;60.69;100380.16;4367105;32;19989;-89
2022/06/18 08:37:02;;;;;;;;;;;;;;;28.00;60.71;100377.00;4365785;32;20658;-90
2022/06/18 08:39:27;;;;;;;;;;;;;;;28.17;60.71;100378.09;4390846;32;20046;-89
2022/06/18 08:42:11;;;;;;;;;;;;;;;28.48;60.73;100370.66;4365857;32;19986;-89
2022/06/18 08:44:39;;;;;;;;;;;;;;;28.60;60.73;100372.94;4392556;32;19982;-90
2022/06/18 08:47:15;;;;;;;;;;;;;;;28.37;60.73;100366.31;4392320;32;19991;-90
2022/06/18 08:49:41;;;;;;;;;;;;;;;28.45;60.73;100362.91;4365788;32;20015;-90
2022/06/18 08:52:09;;;;;;;;;;;;;;;28.63;60.74;100363.81;4394151;32;19982;-88
2022/06/18 08:54:36;;;;;;;;;;;;;;;29.01;60.76;100347.47;4392994;32;20081;-87
2022/06/18 08:57:24;;;;;;;;;;;;;;;29.00;60.76;100351.16;4394211;32;19994;-87
2022/06/18 08:59:55;;;;;;;;;;;;;;;28.38;60.73;100360.81;4385474;32;19999;-87
2022/06/18 09:02:22;;;;;;;;;;;;;;;28.12;60.71;100359.75;4394030;32;20121;-87
2022/06/18 09:05:17;;;;;;;;;;;;;;;28.62;60.74;100354.88;4380354;32;20037;-87
2022/06/18 09:07:52;;;;;;;;;;;;;;;29.01;60.76;100352.81;4366991;32;19990;-86
2022/06/18 09:10:41;;;;;;;;;;;;;;;29.37;60.77;100351.97;4380492;32;20387;-87
2022/06/18 09:13:29;;;;;;;;;;;;;;;29.55;60.79;100342.06;4372108;32;19970;-86
2022/06/18 09:15:56;;;;;;;;;;;;;;;29.67;60.79;100342.66;4385847;32;19951;-86
2022/06/18 09:18:23;;;;;;;;;;;;;;;29.67;60.78;100342.66;4380420;32;20005;-86
2022/06/18 09:20:55;;;;;;;;;;;;;;;29.21;60.77;100341.94;4380252;32;19995;-85
2022/06/18 09:23:22;;;;;;;;;;;;;;;29.09;60.75;100348.53;4393932;32;19974;-85
2022/06/18 09:25:48;;;;;;;;;;;;;;;29.02;60.76;100348.31;4380140;32;19996;-86
2022/06/18 09:28:19;;;;;;;;;;;;;;;28.93;60.75;100338.53;4394074;32;20032;-85
2022/06/18 09:30:50;;;;;;;;;;;;;;;29.07;60.76;100351.38;4380234;32;20050;-86
2022/06/18 09:33:15;;;;;;;;;;;;;;;29.12;60.76;100342.88;4380225;32;19994;-85
2022/06/18 09:35:40;;;;;;;;;;;;;;;29.10;60.76;100334.12;4394066;32;20013;-84
2022/06/18 09:38:07;;;;;;;;;;;;;;;29.45;60.78;100330.59;4395078;32;20092;-85
2022/06/18 09:40:33;;;;;;;;;;;;;;;29.79;60.79;100331.50;4373397;32;20050;-85
2022/06/18 09:43:19;;;;;;;;;;;;;;;29.76;60.79;100330.97;4394076;32;19986;-84
2022/06/18 09:45:49;;;;;;;;;;;;;;;29.52;60.78;100331.66;4349011;32;19974;-85
2022/06/18 09:48:14;;;;;;;;;;;;;;;29.39;60.77;100334.72;4380026;32;20094;-84
2022/06/18 09:50:39;;;;;;;;;;;;;;;29.53;60.78;100326.13;4379950;32;20344;-84
2022/06/18 09:53:06;;;;;;;;;;;;;;;29.68;60.79;100329.09;4393760;32;20074;-84
2022/06/18 09:55:38;;;;;;;;;;;;;;;29.69;60.79;100325.41;4393625;32;19978;-85
2022/06/18 09:58:03;;;;;;;;;;;;;;;29.57;60.79;100324.81;4393351;32;19995;-84
2022/06/18 10:00:29;;;;;;;;;;;;;;;29.58;60.79;100323.00;4392583;32;20036;-84
2022/06/18 10:02:57;;;;;;;;;;;;;;;29.29;60.77;100321.41;4364893;32;20029;-85
2022/06/18 10:08:15;;;;;;;;;;;;;;;29.44;60.78;100319.00;4381817;32;20374;-84
2022/06/18 10:10:42;;;;;;;;;;;;;;;29.11;60.76;100320.59;4379430;32;20074;-84
2022/06/18 10:13:11;;;;;;;;;;;;;;;29.22;60.76;100309.62;4379642;32;20039;-84
2022/06/18 10:15:37;;;;;;;;;;;;;;;29.24;60.77;100310.31;4379717;32;19983;-84
2022/06/18 10:18:02;;;;;;;;;;;;;;;29.27;60.77;100301.09;4392220;32;19994;-83
2022/06/18 10:20:44;;;;;;;;;;;;;;;29.35;60.77;100290.47;4393448;32;20002;-84
2022/06/18 10:23:09;;;;;;;;;;;;;;;29.63;60.79;100308.13;4379702;32;20359;-84
2022/06/18 10:25:42;;;;;;;;;;;;;;;29.60;60.78;100291.50;4393206;32;20013;-84
2022/06/18 10:28:25;;;;;;;;;;;;;;;29.49;60.78;100284.53;4379885;32;20336;-84
2022/06/18 10:31:03;;;;;;;;;;;;;;;29.63;60.80;100283.97;4393323;32;20379;-84
2022/06/18 10:33:51;;;;;;;;;;;;;;;29.86;60.79;100278.88;4393281;32;19979;-84
2022/06/18 10:36:35;;;;;;;;;;;;;;;29.95;60.81;100277.91;4384728;32;19985;-83
2022/06/18 10:39:12;;;;;;;;;;;;;;;29.73;60.79;100277.63;4393348;32;20035;-84
2022/06/18 10:41:40;;;;;;;;;;;;;;;29.76;60.79;100280.84;4367098;32;20014;-84
2022/06/18 10:44:22;;;;;;;;;;;;;;;29.93;60.80;100274.56;4379669;32;20422;-84
2022/06/18 10:46:57;;;;;;;;;;;;;;;30.24;60.81;100265.97;4392889;32;19970;-84
2022/06/18 10:49:23;;;;;;;;;;;;;;;30.27;60.83;100264.78;4379335;32;20643;-83
2022/06/18 10:51:48;;;;;;;;;;;;;;;30.01;60.81;100270.22;4366762;32;20004;-83
2022/06/18 10:54:14;;;;;;;;;;;;;;;29.77;60.80;100281.69;4393094;32;20557;-85
2022/06/18 10:56:49;;;;;;;;;;;;;;;29.86;60.80;100270.00;4393240;32;19987;-84
2022/06/18 10:59:15;;;;;;;;;;;;;;;29.62;60.79;100268.88;4381022;32;20049;-84
2022/06/18 11:01:46;;;;;;;;;;;;;;;29.64;60.80;100263.34;4394968;32;20022;-84
2022/06/18 11:04:22;;;;;;;;;;;;;;;29.98;60.81;100257.97;4395088;32;20075;-84
2022/06/18 11:06:47;;;;;;;;;;;;;;;29.94;60.80;100257.44;4381349;32;20021;-84
2022/06/18 11:09:19;;;;;;;;;;;;;;;30.09;60.81;100257.72;4394869;32;19990;-84
2022/06/18 11:11:44;;;;;;;;;;;;;;;30.40;60.83;100262.50;4381270;32;19990;-84
2022/06/18 11:14:14;;;;;;;;;;;;;;;30.10;60.81;100266.59;4380374;32;28641;-85
2022/06/18 11:16:43;;;;;;;;;;;;;;;29.98;60.81;100257.97;4381017;32;20069;-84
2022/06/18 11:19:18;;;;;;;;;;;;;;;29.97;60.81;100255.44;4381248;32;20002;-85
2022/06/18 11:21:43;;;;;;;;;;;;;;;30.20;60.82;100243.13;4368557;32;20064;-85
2022/06/18 11:24:14;;;;;;;;;;;;;;;30.45;60.83;100235.97;4383344;32;19982;-85
2022/06/18 11:26:40;;;;;;;;;;;;;;;30.76;60.85;100229.00;4394807;32;19971;-85
2022/06/18 11:29:13;;;;;;;;;;;;;;;31.11;60.86;100230.50;4381033;32;19987;-84
2022/06/18 11:31:43;;;;;;;;;;;;;;;30.99;60.86;100221.06;4380950;32;20050;-85
2022/06/18 11:34:27;;;;;;;;;;;;;;;31.02;60.86;100217.22;4380969;32;19974;-85
2022/06/18 11:36:58;;;;;;;;;;;;;;;30.81;60.84;100217.75;4380979;32;20016;-85
2022/06/18 11:39:36;;;;;;;;;;;;;;;30.93;60.86;100216.37;4380800;32;20358;-85
2022/06/18 11:42:16;;;;;;;;;;;;;;;30.77;60.85;100211.03;4381057;32;19994;-85
2022/06/18 11:44:50;;;;;;;;;;;;;;;30.95;60.85;100208.97;4368377;32;19982;-85
2022/06/18 11:47:17;;;;;;;;;;;;;;;30.93;60.86;100207.47;4393202;32;19990;-85
2022/06/18 11:49:52;;;;;;;;;;;;;;;30.54;60.84;100208.12;4368244;32;20053;-85
2022/06/18 11:52:27;;;;;;;;;;;;;;;30.47;60.84;100199.87;4394677;32;20276;-83
2022/06/18 11:55:04;;;;;;;;;;;;;;;30.63;60.84;100188.34;4380877;32;20335;-84
2022/06/18 11:57:31;;;;;;;;;;;;;;;30.59;60.83;100199.56;4393311;32;20098;-84
2022/06/18 12:00:11;;;;;;;;;;;;;;;30.48;60.83;100192.66;4381031;32;20316;-85
2022/06/18 12:02:55;;;;;;;;;;;;;;;30.42;60.83;100187.94;4381111;32;19994;-83
2022/06/18 12:05:26;;;;;;;;;;;;;;;30.16;60.82;100190.78;4394813;32;19978;-85
2022/06/18 12:07:53;;;;;;;;;;;;;;;30.60;60.84;100194.03;4394253;32;19971;-83
2022/06/18 12:10:18;;;;;;;;;;;;;;;30.66;60.84;100181.78;4380664;32;20031;-85
2022/06/18 12:12:44;;;;;;;;;;;;;;;30.85;60.86;100178.75;4394687;32;20013;-83
2022/06/18 12:15:30;;;;;;;;;;;;;;;30.90;60.85;100175.56;4394679;32;20308;-83
2022/06/18 12:17:55;;;;;;;;;;;;;;;30.84;60.86;100179.78;4380806;32;20279;-86
2022/06/18 12:20:29;;;;;;;;;;;;;;;30.64;60.84;100168.53;4394685;32;20033;-85
2022/06/18 12:22:55;;;;;;;;;;;;;;;30.72;60.84;100171.19;4380782;32;20001;-83
2022/06/18 12:25:32;;;;;;;;;;;;;;;31.08;60.87;100170.84;4381048;32;20005;-83
2022/06/18 12:28:10;;;;;;;;;;;;;;;31.37;60.88;100154.97;4394581;32;19970;-83
2022/06/18 12:30:35;;;;;;;;;;;;;;;31.58;60.89;100165.16;4394596;32;20380;-83
2022/06/18 12:33:15;;;;;;;;;;;;;;;31.71;60.90;100151.16;4394685;32;20057;-83
2022/06/18 12:35:43;;;;;;;;;;;;;;;32.04;60.91;100149.16;4380723;32;20000;-83
2022/06/18 12:38:15;;;;;;;;;;;;;;;32.09;60.91;100148.59;4368283;32;19982;-83
2022/06/18 12:40:43;;;;;;;;;;;;;;;32.01;60.91;100146.81;4394475;32;19991;-83
2022/06/18 12:43:14;;;;;;;;;;;;;;;31.98;60.91;100153.41;4380659;32;20035;-83
2022/06/18 12:45:58;;;;;;;;;;;;;;;31.62;60.90;100160.25;4368031;32;19982;-83
2022/06/18 12:48:43;;;;;;;;;;;;;;;31.26;60.87;100155.37;4392977;32;19974;-83